CDT,Max TemperatureF,Mean TemperatureF,Min TemperatureF,Max Dew PointF,MeanDew PointF,Min DewpointF,Max Humidity, Mean Humidity, Min Humidity, Max Sea Level PressureIn, Mean Sea Level PressureIn, Min Sea Level PressureIn, Max VisibilityMiles, Mean VisibilityMiles, Min VisibilityMiles, Max Wind SpeedMPH, Mean Wind SpeedMPH, Max Gust SpeedMPH,PrecipitationIn, CloudCover, Events, WindDirDegrees
2013-5-1,72,68,64,68,64,62,93,88,75,29.99,29.93,29.88,10,8,1,14,2,22,1.90,8,Rain-Thunderstorm,75
2013-5-2,68,66,65,64,63,61,92,87,80,30.04,30.00,29.96,10,8,2,6,0,,0.04,8,Rain,35
2013-5-3,62,54,43,64,45,40,93,82,52,30.08,30.03,29.99,10,6,2,15,8,25,0.21,6,Rain,300
2013-5-4,72,56,41,45,39,32,93,59,25,30.02,29.93,29.84,10,10,4,16,2,25,0.00,3,,257
2013-5-5,67,54,41,50,41,38,91,65,36,30.05,29.99,29.94,10,10,10,14,2,21,0.00,3,,325
2013-5-6,76,62,48,58,51,45,90,67,44,30.03,29.99,29.95,10,10,10,13,1,18,0.00,4,,295
2013-5-7,80,66,53,61,55,51,93,71,41,30.07,30.03,29.99,10,9,5,10,0,,0.00,1,,284
2013-5-8,85,70,57,64,58,54,93,66,36,30.11,30.05,30.02,10,9,3,8,0,,0.00,1,,169
2013-5-9,83,72,62,68,64,59,89,69,51,30.11,30.03,29.97,10,10,7,9,1,,0.04,5,Rain-Thunderstorm,187
2013-5-10,81,73,65,67,65,62,92,77,60,30.02,29.94,29.84,10,10,2,17,5,29,0.57,4,Rain-Thunderstorm,189
2013-5-11,79,68,58,66,62,56,93,79,50,30.10,30.03,29.95,10,8,3,5,0,,0.07,5,Rain,327
2013-5-12,75,64,53,57,47,38,94,58,27,30.25,30.18,30.09,10,9,3,12,2,17,0.00,0,,38
2013-5-13,80,64,48,56,49,46,92,63,32,30.31,30.23,30.17,10,10,10,8,1,,0.00,0,,185
2013-5-14,88,71,55,58,51,40,86,49,23,30.24,30.17,30.10,10,10,10,13,2,20,0.00,0,,216
2013-5-15,85,72,60,65,59,52,91,63,39,30.17,30.09,29.99,10,10,7,13,4,18,0.02,1,Rain,191
2013-5-16,82,72,64,68,65,61,92,76,62,30.01,29.92,29.81,10,10,5,9,2,18,0.00,4,Rain-Thunderstorm,169
2013-5-17,86,78,70,74,69,63,87,74,60,29.98,29.92,29.87,10,10,7,10,4,17,0.00,6,Thunderstorm,196
2013-5-18,91,82,73,71,70,69,86,71,51,30.04,29.97,29.94,10,9,5,9,2,16,0.00,3,,189
2013-5-19,91,82,72,70,69,67,88,67,47,29.99,29.93,29.87,10,10,7,13,4,22,0.00,2,,183
2013-5-20,92,84,76,72,71,69,85,66,47,29.97,29.91,29.82,10,10,7,15,4,25,0.00,3,,179
2013-5-21,91,78,65,73,70,62,90,72,53,29.95,29.87,29.75,10,10,2,23,4,38,0.82,5,Rain-Thunderstorm,181
2013-5-22,86,76,65,71,66,63,92,77,50,29.96,29.90,29.81,10,10,7,10,2,18,0.00,4,Thunderstorm,211
2013-5-23,89,76,65,73,69,64,94,80,49,30.09,30.02,29.96,10,6,0,4,0,,0.00,3,Fog-Rain,260
2013-5-24,83,73,64,69,63,59,89,68,47,30.26,30.17,30.07,10,10,10,9,2,18,0.00,2,,56
2013-5-25,86,74,63,66,59,55,86,62,42,30.27,30.20,30.13,10,10,10,5,0,,0.00,0,,100
2013-5-26,89,76,64,68,62,57,86,61,40,30.19,30.14,30.08,10,10,7,8,1,,0.00,1,,186
2013-5-27,90,80,71,70,66,62,81,64,42,30.11,30.05,29.97,10,10,10,12,2,17,0.00,1,,188
2013-5-28,89,80,71,70,67,62,91,67,42,30.03,29.99,29.94,10,10,5,10,2,18,0.00,1,,172
2013-5-29,90,79,68,72,69,65,89,71,51,30.02,29.96,29.90,10,10,10,10,3,17,0.00,2,Thunderstorm,148
2013-5-30,91,82,74,74,71,68,90,74,51,29.99,29.93,29.86,10,10,4,10,3,18,0.03,4,Rain-Thunderstorm,154
2013-5-31,91,83,75,75,73,72,87,73,56,29.99,29.93,29.85,10,10,10,13,3,17,0.00,5,,171